Dades de l'estació automàtica Pantà de Darnius - Boadella
Resum diari
21:30 TU| Temperatura mitjana | 16.5 °C | |
|---|---|---|
| Temperatura màxima | 22.7 °C | 11:21 TU |
| Temperatura mínima | 11.8 °C | 4:31 TU |
| Humitat relativa mitjana | 86% | |
| Precipitació acumulada | 11.4 mm | |
| Ratxa màxima del vent (10 m) | 28.4 km/h - 129º | 12:37 TU |
| Pressió atmosfèrica mitjana | 1011.5 hPa | |
| Irradiació solar global | 14.2 MJ/m2 | |
El tram horari està expressat en Temps Universal (TU). Cal sumar una hora en horari d'hivern i dues en horari d'estiu per passar a l'hora oficial.
Pantà de Darnius - Boadella
| Municipi | Darnius |
|---|---|
| Comarca | Alt Empordà |
| Altitud | 159 m |
| Data alta | 05.01.1996 |
| Estat actual | Operativa |
| Període TU |
TM °C |
TX °C |
TN °C |
HRM % |
PPT mm |
VVM (10 m) km/h |
DVM (10 m) graus |
VVX (10 m) km/h |
PM hPa |
RS W/m2 |
|---|---|---|---|---|---|---|---|---|---|---|
| 00:00 - 00:30 | 14.3 | 14.8 | 13.9 | 88 | 0.0 | 9.4 | 141 | 16.2 | 1013.3 | 0 |
| 00:30 - 01:00 | 13.7 | 13.9 | 13.4 | 93 | 0.0 | 7.6 | 144 | 14.0 | 1013.5 | 0 |
| 01:00 - 01:30 | 13.4 | 13.5 | 13.2 | 94 | 0.0 | 1.8 | 113 | 4.3 | 1013.4 | 0 |
| 01:30 - 02:00 | 13.2 | 13.3 | 12.9 | 95 | 0.0 | 2.2 | 109 | 4.0 | 1013.2 | 0 |
| 02:00 - 02:30 | 12.6 | 12.8 | 12.5 | 98 | 0.0 | 1.1 | 113 | 3.6 | 1013.1 | 0 |
| 02:30 - 03:00 | 12.9 | 13.2 | 12.5 | 100 | 0.0 | 4.3 | 32 | 10.1 | 1013.1 | 0 |
| 03:00 - 03:30 | 13.1 | 13.3 | 12.8 | 99 | 0.0 | 4.0 | 319 | 8.6 | 1013.1 | 0 |
| 03:30 - 04:00 | 12.8 | 13.0 | 12.6 | 100 | 0.0 | 2.9 | 356 | 6.8 | 1012.7 | 0 |
| 04:00 - 04:30 | 12.5 | 12.9 | 11.9 | 99 | 0.0 | 3.2 | 313 | 10.4 | 1012.5 | 0 |
| 04:30 - 05:00 | 12.3 | 12.7 | 11.8 | 100 | 0.0 | 4.7 | 35 | 10.8 | 1012.3 | 7 |
| 05:00 - 05:30 | 12.4 | 12.6 | 12.1 | 100 | 0.0 | 2.9 | 48 | 6.8 | 1012.0 | 40 |
| 05:30 - 06:00 | 12.5 | 13.0 | 12.2 | 97 | 0.0 | 2.5 | 120 | 7.2 | 1012.1 | 91 |
| 06:00 - 06:30 | 13.5 | 14.5 | 12.6 | 93 | 0.0 | 5.4 | 46 | 10.8 | 1012.0 | 228 |
| 06:30 - 07:00 | 15.4 | 17.0 | 14.7 | 84 | 0.0 | 5.4 | 31 | 11.9 | 1011.7 | 370 |
| 07:00 - 07:30 | 17.1 | 18.1 | 16.2 | 75 | 0.0 | 3.6 | 47 | 9.0 | 1011.5 | 401 |
| 07:30 - 08:00 | 18.4 | 19.2 | 17.8 | 68 | 0.0 | 2.5 | 95 | 7.9 | 1011.5 | 549 |
| 08:00 - 08:30 | 19.4 | 20.2 | 18.7 | 66 | 0.0 | 4.0 | 130 | 11.9 | 1011.4 | 453 |
| 08:30 - 09:00 | 19.9 | 20.5 | 19.5 | 66 | 0.0 | 5.4 | 26 | 15.5 | 1011.4 | 362 |
| 09:00 - 09:30 | 19.9 | 20.4 | 19.6 | 65 | 0.0 | 11.5 | 37 | 18.0 | 1011.4 | 419 |
| 09:30 - 10:00 | 20.4 | 20.8 | 20.1 | 59 | 0.0 | 11.2 | 47 | 25.6 | 1011.7 | 508 |
| 10:00 - 10:30 | 21.0 | 21.4 | 20.5 | 57 | 0.0 | 10.8 | 52 | 26.6 | 1011.8 | 804 |
| 10:30 - 11:00 | 21.4 | 21.8 | 20.9 | 56 | 0.0 | 9.7 | 48 | 22.7 | 1011.7 | 633 |
| 11:00 - 11:30 | 22.0 | 22.7 | 21.4 | 58 | 0.0 | 11.9 | 123 | 24.8 | 1011.3 | 659 |
| 11:30 - 12:00 | 21.7 | 22.2 | 21.1 | 62 | 0.0 | 14.8 | 146 | 27.4 | 1011.0 | 570 |
| 12:00 - 12:30 | 21.7 | 22.5 | 20.9 | 62 | 0.0 | 15.1 | 155 | 28.1 | 1010.8 | 640 |
| 12:30 - 13:00 | 20.5 | 21.4 | 19.8 | 67 | 0.0 | 16.6 | 143 | 28.4 | 1010.7 | 247 |
| 13:00 - 13:30 | 19.5 | 19.9 | 19.3 | 77 | 0.0 | 14.0 | 140 | 25.2 | 1010.4 | 187 |
| 13:30 - 14:00 | 19.7 | 20.0 | 19.3 | 74 | 0.0 | 11.5 | 147 | 20.5 | 1010.2 | 115 |
| 14:00 - 14:30 | 18.2 | 19.3 | 17.5 | 86 | 0.3 | 9.4 | 170 | 19.8 | 1010.2 | 50 |
| 14:30 - 15:00 | 17.9 | 18.2 | 16.7 | 86 | 4.6 | 9.0 | 262 | 20.9 | 1010.2 | 63 |
| 15:00 - 15:30 | 16.1 | 16.6 | 15.8 | 100 | 4.4 | 7.6 | 212 | 23.8 | 1010.4 | 53 |
| 15:30 - 16:00 | 16.4 | 16.5 | 16.0 | 99 | 0.7 | 6.8 | 227 | 21.2 | 1010.4 | 64 |
| 16:00 - 16:30 | 16.5 | 16.6 | 16.4 | 98 | 0.6 | 3.2 | 127 | 11.2 | 1010.3 | 94 |
| 16:30 - 17:00 | 16.8 | 17.0 | 16.6 | 99 | 0.0 | 5.0 | 162 | 16.6 | 1010.2 | 126 |
| 17:00 - 17:30 | 16.7 | 16.8 | 16.5 | 98 | 0.0 | 6.5 | 182 | 17.6 | 1010.0 | 103 |
| 17:30 - 18:00 | 16.6 | 16.8 | 16.4 | 96 | 0.0 | 4.0 | 129 | 7.9 | 1009.8 | 35 |
| 18:00 - 18:30 | 16.4 | 16.4 | 16.3 | 100 | 0.0 | 2.5 | 189 | 5.4 | 1009.8 | 19 |
| 18:30 - 19:00 | 16.2 | 16.3 | 16.0 | 100 | 0.0 | 1.1 | 125 | 5.0 | 1009.8 | 5 |
| 19:00 - 19:30 | 16.1 | 16.2 | 16.0 | 100 | 0.0 | 2.9 | 70 | 10.8 | 1010.4 | 0 |
| 19:30 - 20:00 | 16.0 | 16.1 | 15.7 | 99 | 0.0 | 1.8 | 139 | 6.1 | 1011.1 | 0 |
| 20:00 - 20:30 | 15.7 | 15.8 | 15.5 | 91 | 0.0 | 2.9 | 79 | 14.0 | 1011.3 | 0 |
| 20:30 - 21:00 | 15.1 | 15.6 | 14.8 | 88 | 0.0 | 2.5 | 99 | 8.3 | 1011.6 | 0 |
| 21:00 - 21:30 | 14.5 | 14.9 | 14.3 | 85 | 0.0 | 3.6 | 70 | 10.4 | 1011.8 | 0 |
| 21:30 - 22:00 | 14.3 | 14.6 | 14.1 | 93 | 0.8 | 6.8 | 308 | 13.0 | 1011.9 | 0 |
| 22:00 - 22:30 | (s/d) | (s/d) | (s/d) | (s/d) | (s/d) | (s/d) | (s/d) | (s/d) | (s/d) | (s/d) |
Les dades en taronja només han passat un control de qualitat automàtic. Resta pendent la seva validació definitiva.